EDLN METAR and TAF | Updated Today

EDLN METAR

Mönchengladbach Airport

Observation time: 8 min. ago

EDLN 251920Z AUTO 24007KT 200V280 9999 // BKN055/// OVC071/// 17/07 Q1016

Need help? Read our tutorial on how to read METARs or read the parsed version below.

Mönchengladbach Airport (EDLN) METAR

  • Weather conditions on Wed, 25 May 2022 19:20:00 +0000 (8 min. ago):
  • Present conditions: Dry
  • Clouds: Broken sky at 1676 meters; overcast sky at 2164 meters
  • Visibility: Greater than 10 km
  • Wind: 240 degrees at 7 knots
  • Temperature: 17 celsius
  • Dew point: 7 celsius
  • Pressure: 1016 millibars
  • Remarks: None


Useful to know...

EDLN TAF

Mönchengladbach Airport

TAF EDLN 251700Z 2518/2603 24008KT 9999 SCT045 PROB40 TEMPO 2601/2603 BKN014
Observation time: 2:28 hr. ago
Need help? Read our tutorial on how to read TAFs or read the parsed version below.

Parsed version of TAF for Mönchengladbach Airport (EDLN)

  • From 25 May at 18:00 UTC, to day 26 of the month at 03:00 UTC
  • Clouds: Scattered at 1372 meters
  • Visibility: Greater than 10 km
  • Wind: 240 degrees at 8
  • Expected to arise temporarily, from 26 May at 01:00 UTC, to day 26 of the month at 03:00 UTC
    Probability of 40%
  • Clouds: Broken sky at 427 meters